createdAt,value
2018-09-20T00:05:55.204Z,102088.94
2018-09-20T00:08:58.640Z,102088.75
2018-09-20T00:12:02.163Z,102083.88
2018-09-20T00:15:05.726Z,102084.06
2018-09-20T00:18:09.282Z,102081.79
2018-09-20T00:21:12.832Z,102082.93
2018-09-20T00:24:16.252Z,102079.63
2018-09-20T00:27:19.808Z,102078.39
2018-09-20T00:30:23.261Z,102081.81
2018-09-20T00:33:26.750Z,102085.12
2018-09-20T00:36:30.168Z,102078.08
2018-09-20T00:39:33.970Z,102079.49
2018-09-20T00:42:37.496Z,102082.64
2018-09-20T00:45:41.235Z,102082.03
2018-09-20T00:48:44.674Z,102088.49
2018-09-20T00:51:48.585Z,102088.17
2018-09-20T00:54:52.730Z,102086.03
2018-09-20T00:57:56.520Z,102088.65
2018-09-20T01:01:00.607Z,102092.05
2018-09-20T01:04:04.058Z,102091.93
2018-09-20T01:07:07.590Z,102087.60
2018-09-20T01:10:11.034Z,102085.81
2018-09-20T01:13:14.431Z,102089.76
2018-09-20T01:16:17.839Z,102090.69
2018-09-20T01:19:21.339Z,102091.38
2018-09-20T01:22:24.908Z,102086.75
2018-09-20T01:25:28.350Z,102087.46
2018-09-20T01:28:31.745Z,102093.70
2018-09-20T01:31:35.150Z,102091.67
2018-09-20T01:34:38.565Z,102089.39
2018-09-20T01:37:42.386Z,102087.12
2018-09-20T01:40:45.981Z,102093.90
2018-09-20T01:43:49.457Z,102091.29
2018-09-20T01:46:52.855Z,102086.87
2018-09-20T01:49:56.253Z,102078.13
2018-09-20T01:52:59.895Z,102082.39
2018-09-20T01:56:03.361Z,102088.40
2018-09-20T01:59:06.817Z,102089.40
2018-09-20T02:02:10.394Z,102089.81
2018-09-20T02:05:13.897Z,102087.22
2018-09-20T02:08:17.375Z,102082.71
2018-09-20T02:11:20.778Z,102086.44
2018-09-20T02:14:24.271Z,102084.36
2018-09-20T02:17:27.670Z,102083.02
2018-09-20T02:20:31.090Z,102089.10
2018-09-20T02:23:34.738Z,102100.79
2018-09-20T02:26:38.152Z,102098.03
2018-09-20T02:29:41.572Z,102100.77
2018-09-20T02:32:45.039Z,102103.12
2018-09-20T02:35:48.479Z,102102.44
2018-09-20T02:38:51.919Z,102108.43
2018-09-20T02:41:55.269Z,102106.98
2018-09-20T02:44:58.669Z,102110.04
2018-09-20T02:48:02.115Z,102108.41
2018-09-20T02:51:05.473Z,102106.95
2018-09-20T02:54:08.908Z,102102.93
2018-09-20T02:57:12.273Z,102101.41
2018-09-20T03:00:15.728Z,102101.55
2018-09-20T03:03:19.184Z,102097.84
2018-09-20T03:06:22.576Z,102100.54
2018-09-20T03:09:25.983Z,102094.29
2018-09-20T03:12:29.365Z,102096.53
2018-09-20T03:15:32.770Z,102095.08
2018-09-20T03:18:36.306Z,102095.67
2018-09-20T03:21:39.659Z,102106.94
2018-09-20T03:24:43.367Z,102117.32
2018-09-20T03:27:46.799Z,102118.30
2018-09-20T03:30:50.542Z,102119.23
2018-09-20T03:33:53.886Z,102119.29
2018-09-20T03:36:57.303Z,102117.84
2018-09-20T03:40:00.826Z,102123.12
2018-09-20T03:43:04.206Z,102126.10
2018-09-20T03:46:07.862Z,102114.05
2018-09-20T03:49:11.313Z,102122.17
2018-09-20T03:52:14.887Z,102118.22
2018-09-20T03:55:18.413Z,102118.24
2018-09-20T03:58:22.148Z,102115.66
2018-09-20T04:01:25.623Z,102117.00
2018-09-20T04:04:29.231Z,102123.92
2018-09-20T04:07:32.807Z,102119.36
2018-09-20T04:10:36.363Z,102123.14
2018-09-20T04:13:39.876Z,102122.32
2018-09-20T04:16:43.339Z,102121.64
2018-09-20T04:19:46.856Z,102120.96
2018-09-20T04:22:50.479Z,102117.24
2018-09-20T04:25:53.958Z,102115.88
2018-09-20T04:28:57.824Z,102122.48
2018-09-20T04:32:01.335Z,102120.47
2018-09-20T04:35:04.931Z,102123.96
2018-09-20T04:38:08.394Z,102129.14
2018-09-20T04:41:11.973Z,102135.11
2018-09-20T04:44:15.456Z,102137.34
2018-09-20T04:47:18.971Z,102142.90
2018-09-20T04:50:22.572Z,102145.10
2018-09-20T04:53:26.121Z,102142.71
2018-09-20T04:56:29.604Z,102144.51
2018-09-20T04:59:33.077Z,102154.64
2018-09-20T05:02:36.568Z,102159.94
2018-09-20T05:05:40.077Z,102162.77
2018-09-20T05:08:43.488Z,102167.11
2018-09-20T05:11:47.006Z,102174.21
2018-09-20T05:14:50.504Z,102169.03
2018-09-20T05:17:54.019Z,102172.65
2018-09-20T05:20:57.559Z,102169.61
2018-09-20T05:24:01.039Z,102169.53
2018-09-20T05:27:04.496Z,102164.84
2018-09-20T05:30:07.967Z,102170.27
2018-09-20T05:33:11.468Z,102168.60
2018-09-20T05:36:14.910Z,102174.96
2018-09-20T05:39:18.415Z,102173.74
2018-09-20T05:42:21.906Z,102170.78
2018-09-20T05:45:25.495Z,102176.30
2018-09-20T05:48:29.017Z,102168.24
2018-09-20T05:51:32.420Z,102168.88
2018-09-20T05:54:36.326Z,102165.54
2018-09-20T05:57:39.846Z,102165.41
2018-09-20T06:00:43.396Z,102162.02
2018-09-20T06:03:47.211Z,102161.08
2018-09-20T06:06:50.752Z,102164.86
2018-09-20T06:09:54.259Z,102165.39
2018-09-20T06:12:57.701Z,102161.75
2018-09-20T06:16:01.159Z,102167.15
2018-09-20T06:19:04.585Z,102158.40
2018-09-20T06:22:08.401Z,102169.00
2018-09-20T06:25:12.170Z,102168.02
2018-09-20T06:28:15.583Z,102170.62
2018-09-20T06:31:19.023Z,102170.90
2018-09-20T06:34:22.501Z,102168.28
2018-09-20T06:37:26.074Z,102177.98
2018-09-20T06:40:29.504Z,102174.41
2018-09-20T06:43:32.971Z,102181.11
2018-09-20T06:46:36.388Z,102186.39
2018-09-20T06:49:39.806Z,102187.46
2018-09-20T06:52:43.307Z,102189.27
2018-09-20T06:55:46.817Z,102185.13
2018-09-20T06:58:50.356Z,102187.73
2018-09-20T07:01:53.818Z,102183.34
2018-09-20T07:04:57.469Z,102185.45
2018-09-20T07:08:01.013Z,102181.81
2018-09-20T07:11:04.436Z,102180.43
2018-09-20T07:14:07.981Z,102172.49
2018-09-20T07:17:11.489Z,102165.77
2018-09-20T07:20:14.973Z,102161.72
2018-09-20T07:23:18.588Z,102163.74
2018-09-20T07:26:22.046Z,102161.92
2018-09-20T07:29:25.501Z,102166.27
2018-09-20T07:32:28.904Z,102171.12
2018-09-20T07:35:32.380Z,102169.34
2018-09-20T07:38:35.887Z,102169.50
2018-09-20T07:41:39.765Z,102170.04
2018-09-20T07:44:43.116Z,102176.26
2018-09-20T07:47:46.523Z,102173.32
2018-09-20T07:50:50.299Z,102184.58
2018-09-20T07:53:53.766Z,102179.59
2018-09-20T07:56:57.338Z,102180.21
2018-09-20T08:00:02.873Z,102184.66
2018-09-20T08:03:06.310Z,102178.91
2018-09-20T08:06:09.765Z,102171.46
2018-09-20T08:09:13.491Z,102173.15
2018-09-20T08:12:17.156Z,102176.28
2018-09-20T08:15:20.505Z,102182.30
2018-09-20T08:18:24.256Z,102179.55
2018-09-20T08:21:27.779Z,102176.07
2018-09-20T08:24:31.156Z,102181.48
2018-09-20T08:27:34.506Z,102176.86
2018-09-20T08:30:37.938Z,102171.97
2018-09-20T08:33:41.532Z,102173.27
2018-09-20T08:36:44.965Z,102177.60
2018-09-20T08:39:48.418Z,102180.85
2018-09-20T08:42:51.886Z,102174.77
2018-09-20T08:45:55.356Z,102174.41
2018-09-20T08:48:58.759Z,102168.06
2018-09-20T08:52:02.173Z,102161.80
2018-09-20T08:55:06.087Z,102165.42
2018-09-20T08:58:09.608Z,102164.46
2018-09-20T09:01:13.156Z,102164.46
2018-09-20T09:04:16.642Z,102167.10
2018-09-20T09:07:20.051Z,102163.19
2018-09-20T09:10:23.571Z,102158.08
2018-09-20T09:13:26.976Z,102151.82
2018-09-20T09:16:30.497Z,102147.96
2018-09-20T09:19:34.056Z,102147.49
2018-09-20T09:22:37.577Z,102143.52
2018-09-20T09:25:41.194Z,102144.43
2018-09-20T09:28:44.717Z,102135.30
2018-09-20T09:31:48.164Z,102129.89
2018-09-20T09:34:51.743Z,102121.11
2018-09-20T09:37:55.170Z,102122.69
2018-09-20T09:40:58.765Z,102119.27
2018-09-20T09:44:02.390Z,102120.68
2018-09-20T09:47:05.928Z,102110.75
2018-09-20T09:50:09.456Z,102116.25
2018-09-20T09:53:13.086Z,102102.89
2018-09-20T09:56:16.640Z,102106.19
2018-09-20T09:59:20.098Z,102105.91
2018-09-20T10:02:23.789Z,102100.29
2018-09-20T10:05:27.317Z,102095.75
2018-09-20T10:08:30.948Z,102088.34
2018-09-20T10:11:34.456Z,102087.06
2018-09-20T10:14:38.188Z,102084.08
2018-09-20T10:17:41.731Z,102075.75
2018-09-20T10:20:45.279Z,102074.81
2018-09-20T10:23:48.791Z,102067.32
2018-09-20T10:26:52.294Z,102055.39
2018-09-20T10:29:55.728Z,102053.02
2018-09-20T10:32:59.271Z,102057.89
2018-09-20T10:36:02.869Z,102051.69
2018-09-20T10:39:09.219Z,102043.16
2018-09-20T10:42:12.817Z,102036.48
2018-09-20T10:45:16.349Z,102037.37
2018-09-20T10:48:19.830Z,102036.74
2018-09-20T10:51:23.520Z,102033.66
2018-09-20T10:54:27.364Z,102027.45
2018-09-20T10:57:30.947Z,102025.47
2018-09-20T11:00:34.474Z,102022.28
2018-09-20T11:03:38.073Z,102015.11
2018-09-20T11:06:41.593Z,102020.85
2018-09-20T11:09:45.309Z,102013.72
2018-09-20T11:12:48.878Z,102008.78
2018-09-20T11:15:52.458Z,102012.80
2018-09-20T11:18:55.936Z,102008.54
2018-09-20T11:21:59.493Z,102002.06
2018-09-20T11:25:03.027Z,101989.93
2018-09-20T11:28:06.559Z,101987.87
2018-09-20T11:31:10.081Z,101985.14
2018-09-20T11:34:13.602Z,101983.49
2018-09-20T11:37:17.976Z,101977.30
2018-09-20T11:40:21.423Z,101971.29
2018-09-20T11:43:24.944Z,101969.06
2018-09-20T11:46:30.253Z,101969.57
2018-09-20T11:49:33.791Z,101963.91
2018-09-20T11:52:37.343Z,101965.51
2018-09-20T11:55:40.795Z,101958.58
2018-09-20T11:58:44.386Z,101963.40
2018-09-20T12:01:48.021Z,101957.89
2018-09-20T12:04:51.563Z,101950.45
2018-09-20T12:07:55.066Z,101947.73
2018-09-20T12:10:58.527Z,101947.75
2018-09-20T12:14:02.099Z,101945.41
2018-09-20T12:17:05.526Z,101934.93
2018-09-20T12:20:09.047Z,101927.66
2018-09-20T12:23:12.491Z,101921.62
2018-09-20T12:26:15.955Z,101916.76
2018-09-20T12:29:19.461Z,101905.32
2018-09-20T12:32:23.533Z,101906.63
2018-09-20T12:35:26.868Z,101900.34
2018-09-20T12:38:30.345Z,101895.85
2018-09-20T12:41:33.878Z,101893.40
2018-09-20T12:44:37.318Z,101891.52
2018-09-20T12:47:41.088Z,101879.00
2018-09-20T12:50:44.700Z,101877.43
2018-09-20T12:53:48.099Z,101875.16
2018-09-20T12:56:51.617Z,101868.63
2018-09-20T12:59:55.109Z,101866.47
2018-09-20T13:02:58.598Z,101863.80
2018-09-20T13:06:02.134Z,101861.20
2018-09-20T13:09:08.273Z,101858.13
2018-09-20T13:12:11.835Z,101856.98
2018-09-20T13:15:15.350Z,101854.64
2018-09-20T13:18:18.902Z,101856.61
2018-09-20T13:21:22.384Z,101849.69
2018-09-20T13:24:25.986Z,101841.33
2018-09-20T13:27:29.616Z,101836.85
2018-09-20T13:30:33.109Z,101839.02
2018-09-20T13:33:36.578Z,101837.20
2018-09-20T13:36:40.145Z,101834.14
2018-09-20T13:39:43.683Z,101833.48
2018-09-20T13:42:47.289Z,101828.12
2018-09-20T13:45:50.994Z,101823.16
2018-09-20T13:48:54.581Z,101827.12
2018-09-20T13:51:58.152Z,101816.93
2018-09-20T13:55:01.642Z,101823.64
2018-09-20T13:58:05.315Z,101820.27
2018-09-20T14:01:08.913Z,101820.43
2018-09-20T14:04:12.434Z,101807.48
2018-09-20T14:07:16.263Z,101808.81
2018-09-20T14:10:19.938Z,101798.99
2018-09-20T14:13:23.453Z,101803.40
2018-09-20T14:16:27.053Z,101795.13
2018-09-20T14:19:30.719Z,101784.28
2018-09-20T14:22:34.430Z,101780.38
2018-09-20T14:25:37.919Z,101777.17
2018-09-20T14:28:41.536Z,101765.13
2018-09-20T14:31:45.079Z,101770.41
2018-09-20T14:34:48.568Z,101766.04
2018-09-20T14:37:52.080Z,101759.80
2018-09-20T14:40:55.657Z,101759.34
2018-09-20T14:43:59.277Z,101754.69
2018-09-20T14:47:02.770Z,101752.43
2018-09-20T14:50:06.301Z,101759.69
2018-09-20T14:53:09.866Z,101757.44
2018-09-20T14:56:13.355Z,101747.92
2018-09-20T14:59:16.833Z,101746.53
2018-09-20T15:02:20.431Z,101740.52
2018-09-20T15:05:24.021Z,101737.69
2018-09-20T15:08:27.469Z,101730.06
2018-09-20T15:11:30.996Z,101727.52
2018-09-20T15:14:34.521Z,101724.71
2018-09-20T15:17:37.939Z,101730.31
2018-09-20T15:20:41.533Z,101724.59
2018-09-20T15:23:45.163Z,101727.22
2018-09-20T15:26:48.770Z,101716.39
2018-09-20T15:29:52.294Z,101718.63
2018-09-20T15:32:55.874Z,101715.62
2018-09-20T15:35:59.470Z,101706.96
2018-09-20T15:39:03.527Z,101706.61
2018-09-20T15:42:07.071Z,101704.58
2018-09-20T15:45:10.682Z,101708.06
2018-09-20T15:48:14.161Z,101700.95
2018-09-20T15:51:17.627Z,101698.39
2018-09-20T15:54:21.170Z,101700.35
2018-09-20T15:57:24.664Z,101693.58
2018-09-20T16:00:28.206Z,101688.89
2018-09-20T16:03:31.640Z,101688.86
2018-09-20T16:06:35.205Z,101685.44
2018-09-20T16:09:38.645Z,101686.96
2018-09-20T16:12:42.487Z,101680.15
2018-09-20T16:18:57.775Z,101681.65
2018-09-20T16:22:01.214Z,101679.05
2018-09-20T16:25:05.143Z,101674.56
2018-09-20T16:28:18.900Z,101674.03
2018-09-20T16:31:33.853Z,101678.55
2018-09-20T16:34:52.661Z,101672.18
2018-09-20T16:38:03.956Z,101668.51
2018-09-20T16:41:09.878Z,101664.10
2018-09-20T16:44:13.343Z,101659.54
2018-09-20T16:47:16.747Z,101653.59
2018-09-20T16:50:20.145Z,101652.97
2018-09-20T16:53:24.015Z,101657.33
2018-09-20T16:56:27.440Z,101655.90
2018-09-20T16:59:30.876Z,101655.73
2018-09-20T17:02:34.283Z,101651.35
2018-09-20T17:05:37.794Z,101654.01
2018-09-20T17:08:41.415Z,101657.64
2018-09-20T17:11:44.965Z,101650.09
2018-09-20T17:14:48.439Z,101648.20
2018-09-20T17:17:51.884Z,101649.01
2018-09-20T17:20:55.277Z,101652.10
2018-09-20T17:23:58.684Z,101650.07
2018-09-20T17:27:02.103Z,101645.31
2018-09-20T17:30:05.556Z,101644.63
2018-09-20T17:33:09.075Z,101637.78
2018-09-20T17:36:12.878Z,101646.96
2018-09-20T17:39:17.267Z,101638.81
2018-09-20T17:42:22.193Z,101645.62
2018-09-20T17:45:25.602Z,101642.65
2018-09-20T17:48:29.074Z,101644.17
2018-09-20T17:51:32.949Z,101647.13
2018-09-20T17:54:37.133Z,101653.34
2018-09-20T17:57:41.489Z,101650.27
2018-09-20T18:00:44.928Z,101645.44
2018-09-20T18:03:48.490Z,101647.50
2018-09-20T18:06:51.969Z,101646.44
2018-09-20T18:09:55.811Z,101647.83
2018-09-20T18:12:59.238Z,101647.83
2018-09-20T18:16:02.681Z,101650.83
2018-09-20T18:19:06.067Z,101645.82
2018-09-20T18:22:09.609Z,101640.91
2018-09-20T18:25:13.158Z,101640.21
2018-09-20T18:28:16.574Z,101640.30
2018-09-20T18:31:20.214Z,101652.84
2018-09-20T18:34:23.987Z,101647.51
2018-09-20T18:37:28.792Z,101653.56
2018-09-20T18:40:32.593Z,101653.38
2018-09-20T18:43:36.125Z,101652.80
2018-09-20T18:46:39.709Z,101655.20
2018-09-20T18:49:43.202Z,101649.90
2018-09-20T18:52:46.789Z,101656.64
2018-09-20T18:55:50.290Z,101656.93
2018-09-20T18:58:53.844Z,101662.44
2018-09-20T19:01:57.328Z,101660.25
2018-09-20T19:05:00.867Z,101660.12
2018-09-20T19:08:04.441Z,101664.97
2018-09-20T19:11:08.018Z,101660.76
2018-09-20T19:14:11.689Z,101657.10
2018-09-20T19:17:15.147Z,101655.44
2018-09-20T19:20:18.684Z,101652.50
2018-09-20T19:23:22.228Z,101647.04
2018-09-20T19:26:25.798Z,101648.62
2018-09-20T19:29:29.539Z,101643.74
2018-09-20T19:32:33.060Z,101642.77
2018-09-20T19:35:36.626Z,101639.79
2018-09-20T19:38:40.162Z,101637.28
2018-09-20T19:41:43.647Z,101637.90
2018-09-20T19:44:47.168Z,101632.66
2018-09-20T19:47:50.640Z,101631.07
2018-09-20T19:50:54.062Z,101628.66
2018-09-20T19:53:57.550Z,101627.83
2018-09-20T19:57:01.086Z,101625.46
2018-09-20T20:00:04.981Z,101623.37
2018-09-20T20:03:08.633Z,101616.65
2018-09-20T20:06:12.071Z,101614.25
2018-09-20T20:09:15.477Z,101611.69
2018-09-20T20:12:19.094Z,101606.79
2018-09-20T20:15:22.605Z,101607.86
2018-09-20T20:18:26.113Z,101605.91
2018-09-20T20:21:29.668Z,101601.48
2018-09-20T20:24:33.084Z,101598.75
2018-09-20T20:27:36.573Z,101597.94
2018-09-20T20:30:40.598Z,101592.05
2018-09-20T20:33:45.172Z,101585.97
2018-09-20T20:36:49.602Z,101585.33
2018-09-20T20:39:54.429Z,101586.36
2018-09-20T20:42:58.874Z,101587.41
2018-09-20T20:46:03.830Z,101583.85
2018-09-20T20:49:08.294Z,101577.58
2018-09-20T20:52:12.844Z,101583.25
2018-09-20T20:55:17.448Z,101579.09
2018-09-20T20:58:21.847Z,101574.23
2018-09-20T21:01:26.384Z,101572.09
2018-09-20T21:04:30.723Z,101566.70
2018-09-20T21:07:35.390Z,101565.34
2018-09-20T21:10:40.861Z,101565.53
2018-09-20T21:13:45.248Z,101560.67
2018-09-20T21:16:49.886Z,101561.59
2018-09-20T21:19:54.977Z,101558.92
2018-09-20T21:22:59.459Z,101560.42
2018-09-20T21:26:03.978Z,101559.68
2018-09-20T21:29:09.819Z,101554.38
2018-09-20T21:32:14.299Z,101549.76
2018-09-20T21:35:19.030Z,101542.97
2018-09-20T21:38:23.738Z,101542.13
2018-09-20T21:41:28.641Z,101537.65
2018-09-20T21:44:33.012Z,101531.28
2018-09-20T21:47:37.526Z,101530.30
2018-09-20T21:50:42.129Z,101526.65
2018-09-20T21:53:46.680Z,101522.92
2018-09-20T21:56:51.150Z,101523.44
2018-09-20T21:59:54.648Z,101518.73
2018-09-20T22:03:02.481Z,101516.73
2018-09-20T22:06:06.928Z,101513.31
2018-09-20T22:09:12.547Z,101516.82
2018-09-20T22:12:16.013Z,101512.63
2018-09-20T22:15:23.452Z,101516.15
2018-09-20T22:18:26.927Z,101521.54
2018-09-20T22:21:30.297Z,101517.86
2018-09-20T22:24:33.719Z,101513.19
2018-09-20T22:27:38.280Z,101509.17
2018-09-20T22:30:41.715Z,101513.97
2018-09-20T22:33:45.142Z,101508.23
2018-09-20T22:36:48.564Z,101505.56
2018-09-20T22:39:51.947Z,101503.69
2018-09-20T22:42:55.338Z,101496.09
2018-09-20T22:45:58.884Z,101491.72
2018-09-20T22:49:02.368Z,101493.93
2018-09-20T22:52:05.860Z,101482.34
2018-09-20T22:55:09.271Z,101485.03
2018-09-20T22:58:12.649Z,101483.31
2018-09-20T23:01:16.043Z,101477.41
2018-09-20T23:04:19.490Z,101475.13
2018-09-20T23:07:22.912Z,101473.08
2018-09-20T23:10:26.377Z,101472.69
2018-09-20T23:13:29.756Z,101472.17
2018-09-20T23:16:33.403Z,101467.78
2018-09-20T23:19:36.943Z,101465.52
2018-09-20T23:22:40.357Z,101464.98
2018-09-20T23:25:43.842Z,101465.66
2018-09-20T23:28:47.518Z,101464.19
2018-09-20T23:31:51.936Z,101457.99
2018-09-20T23:34:55.634Z,101459.72
2018-09-20T23:37:59.060Z,101452.21
2018-09-20T23:41:02.532Z,101459.89
2018-09-20T23:44:06.193Z,101456.61
2018-09-20T23:47:09.650Z,101454.49
2018-09-20T23:50:13.169Z,101450.37
2018-09-20T23:53:16.621Z,101448.84
2018-09-20T23:56:20.161Z,101449.98
2018-09-20T23:59:24.584Z,101449.20
